Time;durP1;ratioP1;P1;durP2;ratioP2;P2;SDS_P1;SDS_P2;PMS_P1;PMS_P2;Temp;Humidity;BMP_temperature;BMP_pressure;BME280_temperature;BME280_humidity;BME280_pressure;Samples;Min_cycle;Max_cycle;Signal;HPM_P1;HPM_P2
2023/10/03 00:00:32;;;;;;;49.58;25.30;;;;;;;22.98;100.00;96375.44;5111380;28;20022;-83
2023/10/03 00:03:08;;;;;;;51.10;25.83;;;;;;;22.65;100.00;96377.84;5095330;28;20092;-83
2023/10/03 00:05:35;;;;;;;48.28;26.05;;;;;;;22.78;100.00;96365.03;5106850;27;20031;-83
2023/10/03 00:08:05;;;;;;;46.75;23.73;;;;;;;22.67;100.00;96367.69;5088822;28;20545;-84
2023/10/03 00:10:38;;;;;;;50.60;25.30;;;;;;;22.78;100.00;96370.38;5093611;28;20038;-84
2023/10/03 00:13:07;;;;;;;50.78;24.95;;;;;;;22.81;100.00;96369.91;5109485;28;20027;-84
2023/10/03 00:15:34;;;;;;;45.92;22.60;;;;;;;22.75;100.00;96364.69;5110779;28;20027;-83
2023/10/03 00:18:01;;;;;;;49.03;25.67;;;;;;;22.80;100.00;96365.63;5092735;28;20034;-83
2023/10/03 00:20:27;;;;;;;45.55;23.55;;;;;;;22.88;100.00;96367.13;5110389;28;20398;-84
2023/10/03 00:22:53;;;;;;;46.80;23.83;;;;;;;22.76;100.00;96361.75;5110737;27;20163;-84
2023/10/03 00:25:23;;;;;;;45.80;22.98;;;;;;;23.03;100.00;96363.97;5110840;28;20019;-84
2023/10/03 00:27:50;;;;;;;44.60;24.00;;;;;;;23.19;100.00;96362.47;5091144;28;20568;-83
2023/10/03 00:30:19;;;;;;;46.45;23.65;;;;;;;23.07;100.00;96357.09;5096642;28;20027;-83
2023/10/03 00:32:46;;;;;;;45.40;24.48;;;;;;;23.15;100.00;96356.75;5096145;28;20046;-84
2023/10/03 00:35:16;;;;;;;45.65;24.52;;;;;;;23.20;100.00;96353.34;5113353;28;20043;-83
2023/10/03 00:37:46;;;;;;;43.90;23.55;;;;;;;23.12;100.00;96348.34;5112055;28;20020;-84
2023/10/03 00:40:27;;;;;;;44.97;22.92;;;;;;;23.16;100.00;96347.63;5097067;28;20022;-83
2023/10/03 00:43:00;;;;;;;45.38;24.17;;;;;;;22.93;100.00;96350.34;5095972;28;20118;-84
2023/10/03 00:45:29;;;;;;;;;;;;;;;23.11;100.00;96347.56;5094106;28;20035;-84
2023/10/03 00:47:59;;;;;;;43.60;22.33;;;;;;;22.70;100.00;96345.78;5094530;28;19915;-84
2023/10/03 00:50:27;;;;;;;44.00;22.13;;;;;;;22.55;100.00;96343.56;5095376;28;20068;-83
2023/10/03 00:52:56;;;;;;;48.60;23.50;;;;;;;22.54;100.00;96344.63;5107563;28;20032;-83
2023/10/03 00:55:28;;;;;;;45.28;24.40;;;;;;;22.61;100.00;96345.31;5088760;28;20038;-84
2023/10/03 00:58:06;;;;;;;33.20;17.98;;;;;;;22.50;100.00;96346.13;5097192;28;20080;-83
2023/10/03 01:00:39;;;;;;;41.80;22.67;;;;;;;22.60;100.00;96346.34;5098375;28;20173;-84
2023/10/03 01:03:06;;;;;;;41.28;23.23;;;;;;;22.41;100.00;96347.53;5109561;28;20024;-84
2023/10/03 01:05:34;;;;;;;47.78;23.73;;;;;;;22.57;100.00;96330.75;5096454;28;20039;-84
2023/10/03 01:08:03;;;;;;;40.63;22.00;;;;;;;22.56;100.00;96335.28;5094847;28;20027;-84
2023/10/03 01:10:30;;;;;;;43.17;23.15;;;;;;;22.35;100.00;96342.03;5086681;28;20024;-85
2023/10/03 01:13:07;;;;;;;42.50;22.23;;;;;;;22.32;100.00;96339.00;5096621;28;20357;-83
2023/10/03 01:15:36;;;;;;;46.78;23.40;;;;;;;22.18;100.00;96334.91;5111981;28;21625;-83
2023/10/03 01:18:04;;;;;;;45.22;23.55;;;;;;;22.01;100.00;96327.50;5108432;28;20028;-83
2023/10/03 01:20:40;;;;;;;47.15;24.42;;;;;;;21.60;100.00;96331.78;5114464;28;20520;-84
2023/10/03 01:23:08;;;;;;;47.42;24.05;;;;;;;21.46;100.00;96324.94;5109878;28;20028;-83
2023/10/03 01:25:35;;;;;;;53.30;24.52;;;;;;;21.56;100.00;96329.75;5120522;28;20053;-83
2023/10/03 01:28:01;;;;;;;48.67;22.83;;;;;;;21.34;100.00;96319.56;5114808;28;20000;-83
2023/10/03 01:30:26;;;;;;;48.20;24.27;;;;;;;21.33;100.00;96315.22;5106197;28;20032;-84
2023/10/03 01:32:56;;;;;;;42.73;22.53;;;;;;;21.47;100.00;96313.22;5100717;28;20049;-83
2023/10/03 01:35:23;;;;;;;42.60;22.60;;;;;;;21.51;100.00;96310.91;5097007;28;20393;-84
2023/10/03 01:37:52;;;;;;;41.97;22.30;;;;;;;21.30;100.00;96313.00;5098005;28;20019;-83
2023/10/03 01:40:18;;;;;;;47.43;23.57;;;;;;;21.38;100.00;96310.03;5097467;28;20019;-83
2023/10/03 01:42:47;;;;;;;43.90;22.07;;;;;;;21.42;100.00;96303.19;5107453;28;20020;-83
2023/10/03 01:45:17;;;;;;;44.63;21.63;;;;;;;21.63;100.00;96309.09;5098237;28;20023;-84
2023/10/03 01:47:45;;;;;;;46.07;24.90;;;;;;;21.65;100.00;96304.31;5099006;28;20492;-84
2023/10/03 01:50:12;;;;;;;44.20;22.90;;;;;;;21.71;100.00;96298.06;5089378;28;20455;-83
2023/10/03 01:52:42;;;;;;;42.35;22.20;;;;;;;21.75;100.00;96307.28;5116793;28;20028;-83
2023/10/03 01:55:13;;;;;;;44.07;22.80;;;;;;;21.69;100.00;96294.78;5095829;28;20012;-84
2023/10/03 01:57:41;;;;;;;43.63;21.95;;;;;;;22.08;100.00;96292.56;5112203;28;20065;-84
2023/10/03 02:00:25;;;;;;;40.83;21.37;;;;;;;21.98;100.00;96286.97;5097416;28;20030;-83
2023/10/03 02:03:05;;;;;;;44.13;23.58;;;;;;;21.69;100.00;96284.09;5096056;28;20024;-83
2023/10/03 02:05:36;;;;;;;44.07;21.67;;;;;;;21.62;100.00;96291.41;5086209;28;20030;-84
2023/10/03 02:08:07;;;;;;;43.38;22.80;;;;;;;21.51;100.00;96281.47;5084803;28;20020;-84
2023/10/03 02:10:37;;;;;;;42.00;21.93;;;;;;;21.55;100.00;96283.47;5092699;28;20035;-83
2023/10/03 02:13:09;;;;;;;46.37;23.93;;;;;;;21.56;100.00;96282.44;5091695;28;20110;-83
2023/10/03 02:15:38;;;;;;;45.78;22.88;;;;;;;21.57;100.00;96277.91;5093426;28;20027;-83
2023/10/03 02:18:05;;;;;;;41.27;21.60;;;;;;;21.45;100.00;96274.34;5091365;28;20047;-83
2023/10/03 02:20:38;;;;;;;43.10;22.70;;;;;;;21.42;100.00;96276.44;5115178;28;20023;-83
2023/10/03 02:23:05;;;;;;;;;;;;;;;21.38;100.00;96271.75;5090391;28;20024;-84
2023/10/03 02:25:37;;;;;;;37.50;20.43;;;;;;;21.17;100.00;96271.19;5085233;28;19975;-83
2023/10/03 02:28:05;;;;;;;44.58;22.17;;;;;;;21.14;100.00;96273.50;5112587;28;20638;-83
2023/10/03 02:30:31;;;;;;;43.27;21.93;;;;;;;20.95;100.00;96270.00;5098147;28;20028;-83
2023/10/03 02:33:04;;;;;;;46.20;22.80;;;;;;;20.71;100.00;96269.03;5098830;28;20400;-83
2023/10/03 02:35:30;;;;;;;45.50;22.40;;;;;;;20.57;100.00;96271.03;5115484;28;20024;-83
2023/10/03 02:37:57;;;;;;;42.43;20.90;;;;;;;20.50;100.00;96259.56;5095482;28;20023;-83
2023/10/03 02:40:28;;;;;;;40.13;20.83;;;;;;;20.46;100.00;96261.88;5098695;28;20027;-83
2023/10/03 02:42:55;;;;;;;41.70;21.23;;;;;;;20.74;100.00;96265.94;5105689;28;20474;-83
2023/10/03 02:45:23;;;;;;;39.77;19.23;;;;;;;20.80;100.00;96261.56;5093625;28;20110;-83
2023/10/03 02:48:24;;;;;;;36.17;19.60;;;;;;;20.73;100.00;96258.16;5099016;28;20068;-83
2023/10/03 02:50:50;;;;;;;41.23;20.33;;;;;;;20.79;100.00;96259.91;5085596;28;20064;-83
2023/10/03 02:53:22;;;;;;;37.80;20.17;;;;;;;21.02;100.00;96253.88;5113903;28;20489;-83
2023/10/03 02:55:48;;;;;;;36.53;19.03;;;;;;;21.13;100.00;96255.81;5085961;28;20502;-83
2023/10/03 02:58:14;;;;;;;40.87;20.57;;;;;;;20.94;100.00;96255.81;5096879;28;20024;-83
2023/10/03 03:00:42;;;;;;;41.07;19.87;;;;;;;20.80;100.00;96262.38;5109431;28;20377;-83
2023/10/03 03:03:10;;;;;;;42.03;20.20;;;;;;;21.04;100.00;96255.28;5092313;28;20028;-83
2023/10/03 03:05:37;;;;;;;36.17;19.00;;;;;;;20.72;100.00;96257.31;5102723;28;20051;-83
2023/10/03 03:08:28;;;;;;;39.30;19.93;;;;;;;20.89;100.00;96255.69;5087715;28;20027;-83
2023/10/03 03:10:58;;;;;;;37.67;18.53;;;;;;;20.80;100.00;96258.88;5095709;28;20089;-83
2023/10/03 03:13:26;;;;;;;32.80;16.93;;;;;;;20.77;100.00;96256.66;5093958;28;20045;-83
2023/10/03 03:16:06;;;;;;;37.07;17.93;;;;;;;21.00;100.00;96247.97;5098251;28;20030;-83
2023/10/03 03:18:47;;;;;;;38.10;18.53;;;;;;;20.37;100.00;96252.50;5093636;28;20053;-83
2023/10/03 03:21:15;;;;;;;34.10;18.43;;;;;;;20.52;100.00;96248.69;5107011;28;20027;-83
2023/10/03 03:24:15;;;;;;;35.53;17.40;;;;;;;20.59;100.00;96249.44;5095884;27;20027;-83
2023/10/03 03:26:36;;;;;;;23.98;13.35;;;;;;;20.69;100.00;96245.22;5104848;28;20046;-84
2023/10/03 03:29:22;;;;;;;36.20;18.33;;;;;;;20.59;100.00;96244.09;5094484;28;20032;-83
2023/10/03 03:31:49;;;;;;;35.20;16.57;;;;;;;20.66;100.00;96250.19;5092606;28;20118;-83
2023/10/03 03:34:15;;;;;;;35.20;17.50;;;;;;;20.95;100.00;96246.75;5094884;28;20020;-83
2023/10/03 03:36:40;;;;;;;34.33;17.57;;;;;;;20.56;100.00;96247.22;5087782;28;20028;-84
2023/10/03 03:39:14;;;;;;;40.10;17.87;;;;;;;20.80;100.00;96241.00;5107614;27;20020;-83
2023/10/03 03:41:41;;;;;;;33.47;17.67;;;;;;;20.33;100.00;96237.16;5106731;28;20016;-83
2023/10/03 03:44:11;;;;;;;33.50;17.63;;;;;;;20.35;100.00;96240.41;5093907;28;20031;-83
2023/10/03 03:46:40;;;;;;;32.40;16.43;;;;;;;20.43;100.00;96242.78;5085546;28;20371;-83
2023/10/03 03:49:10;;;;;;;32.60;17.73;;;;;;;20.25;100.00;96243.56;5108670;28;20024;-83
2023/10/03 03:51:36;;;;;;;34.60;18.33;;;;;;;20.30;100.00;96246.41;5091234;28;20031;-84
2023/10/03 03:54:12;;;;;;;35.00;17.80;;;;;;;20.28;100.00;96242.31;5110670;28;20669;-83
2023/10/03 03:56:40;;;;;;;32.60;16.47;;;;;;;20.10;100.00;96237.75;5107971;28;20110;-83
2023/10/03 03:59:06;;;;;;;32.57;16.30;;;;;;;20.21;100.00;96237.84;5090906;28;20019;-83
2023/10/03 04:01:33;;;;;;;33.60;17.67;;;;;;;20.45;100.00;96238.84;5091405;28;20038;-83
2023/10/03 04:03:59;;;;;;;33.17;16.37;;;;;;;20.85;100.00;96242.97;5087464;28;20047;-83
2023/10/03 04:06:25;;;;;;;31.10;15.37;;;;;;;21.04;100.00;96241.13;5104163;28;20389;-83
2023/10/03 04:08:51;;;;;;;31.67;16.40;;;;;;;21.06;100.00;96239.00;5086429;28;20084;-83
2023/10/03 04:11:16;;;;;;;29.57;15.17;;;;;;;20.98;100.00;96245.50;5089738;28;20108;-83
2023/10/03 04:13:55;;;;;;;30.13;14.83;;;;;;;21.23;100.00;96237.38;5103349;28;20024;-83
2023/10/03 04:16:27;;;;;;;31.73;16.07;;;;;;;21.39;100.00;96230.59;5084627;28;20024;-83
2023/10/03 04:18:53;;;;;;;28.88;15.02;;;;;;;21.45;100.00;96226.19;5088939;28;20023;-83
2023/10/03 04:21:26;;;;;;;26.60;13.77;;;;;;;21.28;100.00;96226.78;5105428;28;20489;-83
2023/10/03 04:23:53;;;;;;;28.52;14.50;;;;;;;21.22;100.00;96230.38;5087078;28;20475;-82
2023/10/03 04:26:19;;;;;;;31.73;15.47;;;;;;;21.12;100.00;96233.59;5090083;28;20115;-83
2023/10/03 04:28:45;;;;;;;27.67;14.67;;;;;;;21.10;100.00;96232.19;5080088;28;20028;-83
2023/10/03 04:31:10;;;;;;;29.57;15.20;;;;;;;21.25;100.00;96237.94;5104302;28;20036;-83
2023/10/03 04:33:36;;;;;;;31.33;14.83;;;;;;;21.10;100.00;96229.53;5084169;28;20032;-83
2023/10/03 04:36:05;;;;;;;29.17;15.93;;;;;;;21.12;100.00;96227.41;5103063;28;20031;-83
2023/10/03 04:38:34;;;;;;;28.47;14.37;;;;;;;21.09;100.00;96233.22;5081321;28;20024;-83
2023/10/03 04:40:59;;;;;;;27.53;14.63;;;;;;;21.31;100.00;96223.66;5110009;28;20023;-82
2023/10/03 04:43:29;;;;;;;27.13;14.43;;;;;;;21.02;100.00;96227.16;5091608;28;20080;-83
2023/10/03 04:45:56;;;;;;;24.37;12.93;;;;;;;21.33;100.00;96223.47;5109707;28;20076;-83
2023/10/03 04:48:22;;;;;;;30.60;15.13;;;;;;;21.27;100.00;96230.53;5109346;28;20027;-83
2023/10/03 04:50:51;;;;;;;26.33;14.00;;;;;;;21.32;100.00;96221.81;5101357;28;20478;-83
2023/10/03 04:53:18;;;;;;;28.33;14.13;;;;;;;21.09;100.00;96226.03;5105577;28;20023;-83
2023/10/03 04:55:44;;;;;;;28.00;13.83;;;;;;;21.06;100.00;96223.81;5101756;28;20092;-83
2023/10/03 04:58:12;;;;;;;30.73;15.53;;;;;;;20.74;100.00;96220.50;5098767;28;20072;-83
2023/10/03 05:00:38;;;;;;;30.93;14.73;;;;;;;20.80;100.00;96222.28;5102801;28;20175;-83
2023/10/03 05:03:09;;;;;;;27.00;13.10;;;;;;;21.00;100.00;96218.56;5103955;28;20569;-83
2023/10/03 05:05:35;;;;;;;23.97;13.57;;;;;;;21.36;100.00;96231.03;5107330;28;20361;-83
2023/10/03 05:08:02;;;;;;;22.43;11.90;;;;;;;21.16;100.00;96228.63;5091212;28;20389;-83
2023/10/03 05:10:29;;;;;;;27.80;14.50;;;;;;;21.08;100.00;96226.25;5109059;28;20782;-83
2023/10/03 05:12:55;;;;;;;24.80;12.20;;;;;;;20.92;100.00;96231.19;5106911;28;20088;-83
2023/10/03 05:15:21;;;;;;;24.20;13.03;;;;;;;21.06;100.00;96222.97;5091162;28;20474;-83
2023/10/03 05:17:48;;;;;;;25.33;11.80;;;;;;;20.87;100.00;96225.69;5099866;28;20070;-83
2023/10/03 05:20:17;;;;;;;22.67;11.33;;;;;;;20.97;100.00;96232.38;5089753;28;20024;-83
2023/10/03 05:23:14;;;;;;;20.60;11.40;;;;;;;21.18;100.00;96234.56;5105396;28;20119;-83
2023/10/03 05:25:42;;;;;;;22.30;11.57;;;;;;;21.02;100.00;96227.16;5110395;28;20450;-83
2023/10/03 05:28:11;;;;;;;23.40;11.93;;;;;;;21.04;100.00;96233.09;5101146;28;20072;-82
2023/10/03 05:30:38;;;;;;;21.43;12.47;;;;;;;20.90;100.00;96233.25;5109718;28;20058;-82
2023/10/03 05:33:22;;;;;;;21.60;11.43;;;;;;;21.08;100.00;96224.38;5093048;28;20019;-83
2023/10/03 05:35:49;;;;;;;22.63;11.63;;;;;;;21.12;100.00;96224.75;5104773;28;20048;-83
2023/10/03 05:38:14;;;;;;;22.15;11.48;;;;;;;21.59;100.00;96228.44;5105348;28;20019;-83
2023/10/03 05:40:40;;;;;;;22.67;11.25;;;;;;;21.21;100.00;96226.06;5101954;28;20088;-83
2023/10/03 05:43:07;;;;;;;22.53;11.63;;;;;;;21.68;100.00;96230.81;5080422;28;20103;-83
2023/10/03 05:45:34;;;;;;;21.45;10.90;;;;;;;21.91;100.00;96225.50;5103502;28;20015;-83
2023/10/03 05:48:00;;;;;;;21.90;10.38;;;;;;;22.11;100.00;96230.53;5091880;28;20028;-83
2023/10/03 05:50:25;;;;;;;21.08;11.13;;;;;;;22.60;93.92;96231.09;5092426;28;20031;-84
2023/10/03 05:52:51;;;;;;;18.63;10.15;;;;;;;22.48;94.93;96227.63;5105702;28;20296;-84
2023/10/03 05:55:17;;;;;;;18.58;9.35;;;;;;;22.87;92.59;96222.53;5077011;28;20032;-84
2023/10/03 05:57:43;;;;;;;20.88;10.73;;;;;;;23.22;89.79;96225.97;5113127;28;20023;-83
2023/10/03 06:00:17;;;;;;;18.80;9.95;;;;;;;23.59;85.02;96220.19;5087547;28;20389;-83
2023/10/03 06:02:54;;;;;;;19.95;9.82;;;;;;;23.54;85.74;96220.13;5105934;28;20478;-83
2023/10/03 06:05:22;;;;;;;22.08;10.65;;;;;;;23.20;88.74;96228.06;5100748;28;20016;-84
2023/10/03 06:07:47;;;;;;;19.83;10.35;;;;;;;23.03;91.80;96232.56;5095121;28;20043;-84
2023/10/03 06:10:15;;;;;;;23.25;11.73;;;;;;;22.85;90.39;96230.03;5086100;28;20410;-84
2023/10/03 06:12:41;;;;;;;21.25;11.40;;;;;;;22.71;94.15;96241.00;5112872;28;20019;-84
2023/10/03 06:15:07;;;;;;;19.52;10.65;;;;;;;22.42;95.97;96241.97;5092420;28;20024;-84
2023/10/03 06:17:35;;;;;;;18.65;11.20;;;;;;;22.62;94.27;96242.41;5095821;28;20664;-84
2023/10/03 06:20:05;;;;;;;19.02;10.00;;;;;;;22.44;93.53;96235.31;5094652;28;20031;-83
2023/10/03 06:22:39;;;;;;;19.27;10.27;;;;;;;22.59;94.57;96240.19;5094403;28;20392;-83
2023/10/03 06:25:06;;;;;;;18.33;9.93;;;;;;;22.85;92.33;96232.72;5090397;28;20050;-84
2023/10/03 06:27:31;;;;;;;18.42;9.85;;;;;;;22.75;92.79;96244.84;5098409;28;20030;-84
2023/10/03 06:29:57;;;;;;;20.08;10.65;;;;;;;23.17;90.64;96241.13;5092367;28;20028;-85
2023/10/03 06:32:22;;;;;;;22.45;9.70;;;;;;;23.52;86.76;96246.38;5107977;28;20046;-85
2023/10/03 06:34:48;;;;;;;19.70;10.15;;;;;;;23.42;87.54;96241.63;5086267;28;20031;-84
2023/10/03 06:37:13;;;;;;;20.77;9.90;;;;;;;24.45;81.06;96241.53;5082784;28;20106;-83
2023/10/03 06:39:41;;;;;;;20.30;10.55;;;;;;;24.70;78.30;96243.75;5079775;28;20073;-84
2023/10/03 06:42:07;;;;;;;21.00;10.90;;;;;;;25.49;72.19;96239.88;5095582;28;20028;-83
2023/10/03 06:44:36;;;;;;;19.88;10.15;;;;;;;25.79;68.20;96236.66;5088609;28;20159;-82
2023/10/03 06:47:04;;;;;;;20.92;10.32;;;;;;;25.82;67.69;96241.53;5108685;28;20038;-82
2023/10/03 06:49:29;;;;;;;17.83;9.63;;;;;;;26.16;64.21;96246.72;5085092;28;20059;-82
2023/10/03 06:51:57;;;;;;;20.48;9.63;;;;;;;26.71;61.76;96238.19;5090692;28;20059;-83
2023/10/03 06:54:24;;;;;;;20.63;10.25;;;;;;;27.35;59.53;96242.53;5094225;28;20543;-83
2023/10/03 06:56:50;;;;;;;18.67;10.75;;;;;;;27.64;58.57;96250.19;5106515;28;20024;-83
2023/10/03 06:59:16;;;;;;;22.92;11.15;;;;;;;27.91;55.81;96256.19;5098392;28;20060;-83
2023/10/03 07:01:42;;;;;;;20.55;11.35;;;;;;;27.90;56.67;96248.34;5094262;28;20072;-83
2023/10/03 07:04:08;;;;;;;22.23;11.18;;;;;;;27.78;54.95;96243.22;5092484;28;20431;-82
2023/10/03 07:06:34;;;;;;;19.02;10.80;;;;;;;28.17;55.56;96246.19;5088748;28;20055;-82
2023/10/03 07:09:05;;;;;;;30.17;12.05;;;;;;;28.45;53.24;96246.75;5103504;28;20127;-82
2023/10/03 07:11:31;;;;;;;23.33;11.32;;;;;;;27.95;55.59;96256.47;5108021;28;20023;-82
2023/10/03 07:13:57;;;;;;;21.23;12.10;;;;;;;28.41;54.89;96254.59;5094755;28;20042;-82
2023/10/03 07:16:22;;;;;;;20.02;11.40;;;;;;;28.63;53.34;96256.97;5110406;28;20953;-82
2023/10/03 07:18:48;;;;;;;22.58;12.90;;;;;;;28.74;52.75;96252.38;5081431;28;20020;-83
2023/10/03 07:21:16;;;;;;;21.30;11.82;;;;;;;28.95;52.28;96255.84;5108900;28;20020;-82
2023/10/03 07:23:42;;;;;;;19.48;11.23;;;;;;;29.20;50.43;96260.34;5094118;28;20473;-82
2023/10/03 07:26:08;;;;;;;21.60;11.50;;;;;;;29.73;48.94;96257.16;5094962;28;20074;-83
2023/10/03 07:28:38;;;;;;;21.45;11.88;;;;;;;29.64;49.49;96265.03;5094449;28;20051;-83
2023/10/03 07:31:13;;;;;;;22.15;11.82;;;;;;;29.64;49.48;96264.25;5110465;28;20039;-83
2023/10/03 07:33:40;;;;;;;20.05;11.10;;;;;;;29.23;50.31;96265.22;5087188;28;20015;-83
2023/10/03 07:36:07;;;;;;;19.80;12.35;;;;;;;29.69;49.16;96256.09;5087963;28;20020;-83
2023/10/03 07:38:32;;;;;;;21.67;11.80;;;;;;;29.79;48.96;96262.25;5094957;28;20024;-83
2023/10/03 07:40:58;;;;;;;19.17;11.23;;;;;;;30.06;48.41;96261.78;5091670;28;20081;-83
2023/10/03 07:43:24;;;;;;;21.15;11.57;;;;;;;30.65;46.81;96262.69;5110244;28;20021;-83
2023/10/03 07:45:50;;;;;;;23.17;11.70;;;;;;;30.70;47.06;96264.53;5085098;28;20038;-83
2023/10/03 07:48:15;;;;;;;18.90;10.45;;;;;;;30.96;46.14;96262.38;5082903;28;20098;-82
2023/10/03 07:50:43;;;;;;;20.50;11.52;;;;;;;31.73;44.36;96259.53;5090190;28;20028;-83
2023/10/03 07:53:11;;;;;;;16.35;10.23;;;;;;;31.26;45.19;96265.84;5090692;28;20064;-82
2023/10/03 07:55:39;;;;;;;17.33;9.60;;;;;;;31.37;45.31;96267.34;5107880;28;20060;-82
2023/10/03 07:58:05;;;;;;;18.58;10.10;;;;;;;31.48;44.44;96257.94;5103930;28;20034;-83
2023/10/03 08:00:31;;;;;;;19.23;9.60;;;;;;;31.39;43.61;96263.25;5089619;28;20066;-83
2023/10/03 08:03:08;;;;;;;16.60;10.20;;;;;;;31.53;43.67;96260.63;5085532;28;20077;-83
2023/10/03 08:05:34;;;;;;;17.00;10.20;;;;;;;31.43;43.31;96264.28;5109328;28;20034;-83
2023/10/03 08:08:02;;;;;;;15.80;9.43;;;;;;;31.55;42.86;96271.97;5092606;28;20102;-83
2023/10/03 08:10:30;;;;;;;16.25;8.85;;;;;;;32.25;42.24;96260.38;5105882;28;20031;-83
2023/10/03 08:12:57;;;;;;;14.45;9.15;;;;;;;31.62;42.31;96263.47;5087526;28;20024;-82
2023/10/03 08:15:31;;;;;;;13.73;8.32;;;;;;;32.72;40.84;96261.22;5091699;28;20031;-83
2023/10/03 08:17:57;;;;;;;17.02;8.90;;;;;;;32.90;40.34;96256.81;5089687;28;20034;-83
2023/10/03 08:20:24;;;;;;;18.90;10.27;;;;;;;32.29;41.39;96266.81;5096849;28;20030;-84
2023/10/03 08:22:52;;;;;;;16.23;8.85;;;;;;;32.51;40.68;96258.06;5087151;28;20023;-83
2023/10/03 08:25:27;;;;;;;15.40;8.88;;;;;;;32.98;40.27;96260.78;5102644;28;20437;-82
2023/10/03 08:28:09;;;;;;;15.70;9.55;;;;;;;33.17;39.14;96264.22;5093763;28;20437;-82
2023/10/03 08:30:35;;;;;;;;;;;;;;;32.71;38.90;96266.97;5093830;28;20036;-82
2023/10/03 08:33:05;;;;;;;14.75;7.22;;;;;;;33.23;39.35;96267.63;5089770;28;20389;-83
2023/10/03 08:35:37;;;;;;;14.32;8.38;;;;;;;32.52;39.92;96259.66;5104242;28;20031;-83
2023/10/03 08:38:15;;;;;;;15.85;8.35;;;;;;;33.08;39.25;96266.03;5085884;28;20099;-83
2023/10/03 08:40:42;;;;;;;12.27;7.18;;;;;;;33.18;38.48;96265.00;5096346;28;20030;-83
2023/10/03 08:43:10;;;;;;;15.13;8.27;;;;;;;34.03;37.22;96252.56;5083864;28;20026;-83
2023/10/03 08:45:52;;;;;;;13.30;7.93;;;;;;;33.31;37.41;96259.56;5108437;28;20513;-83
2023/10/03 08:48:29;;;;;;;13.00;7.50;;;;;;;34.52;37.09;96260.97;5109459;28;20431;-83
2023/10/03 08:50:58;;;;;;;12.43;7.85;;;;;;;34.05;36.91;96260.44;5087236;28;20390;-83
2023/10/03 08:53:27;;;;;;;12.73;7.18;;;;;;;33.72;36.47;96261.41;5089927;28;20032;-83
2023/10/03 08:56:03;;;;;;;13.88;8.02;;;;;;;34.05;35.98;96260.44;5083128;28;20441;-83
2023/10/03 08:58:29;;;;;;;13.52;7.45;;;;;;;33.89;36.81;96263.50;5099591;28;20051;-83
2023/10/03 09:00:59;;;;;;;11.30;6.93;;;;;;;34.58;36.42;96274.16;5094184;28;20042;-84
2023/10/03 09:03:42;;;;;;;13.88;6.90;;;;;;;34.82;35.82;96262.88;5093441;28;20028;-83
2023/10/03 09:06:07;;;;;;;11.73;7.05;;;;;;;34.43;35.37;96261.66;5093525;28;20775;-83
2023/10/03 09:08:33;;;;;;;12.90;7.70;;;;;;;35.12;34.90;96260.47;5110266;28;20114;-83
2023/10/03 09:11:00;;;;;;;12.95;6.63;;;;;;;35.14;34.60;96263.66;5109366;28;20538;-83
2023/10/03 09:13:30;;;;;;;12.35;6.75;;;;;;;35.06;34.79;96256.25;5088313;28;20521;-83
2023/10/03 09:16:00;;;;;;;14.85;6.03;;;;;;;34.13;34.90;96260.50;5088387;28;20027;-83
2023/10/03 09:18:30;;;;;;;10.02;5.90;;;;;;;34.00;35.31;96248.53;5107369;28;20039;-84
2023/10/03 09:20:59;;;;;;;12.75;6.90;;;;;;;35.12;34.48;96253.06;5106455;28;20019;-84
2023/10/03 09:23:27;;;;;;;11.38;5.82;;;;;;;34.55;34.92;96254.88;5089229;28;20494;-83
2023/10/03 09:25:56;;;;;;;11.90;6.63;;;;;;;35.06;34.44;96259.78;5110608;28;20031;-83
2023/10/03 09:28:43;;;;;;;10.75;6.22;;;;;;;34.54;34.96;96253.25;5091726;28;20062;-84
2023/10/03 09:31:08;;;;;;;10.55;6.35;;;;;;;34.65;35.09;96255.41;5106720;28;20394;-83
2023/10/03 09:33:39;;;;;;;13.30;6.88;;;;;;;34.96;34.35;96258.13;5090572;28;20028;-83
2023/10/03 09:36:05;;;;;;;12.77;6.03;;;;;;;35.43;33.98;96255.72;5092624;28;20027;-84
2023/10/03 09:38:44;;;;;;;10.25;6.38;;;;;;;35.36;33.06;96252.66;5092682;28;20489;-83
2023/10/03 09:41:18;;;;;;;10.00;5.70;;;;;;;35.85;33.37;96255.31;5092481;28;20033;-84
2023/10/03 09:43:49;;;;;;;11.55;7.40;;;;;;;36.30;33.09;96253.06;5087935;28;20020;-84
2023/10/03 09:46:23;;;;;;;11.13;5.75;;;;;;;35.39;34.09;96243.00;5087760;28;20349;-84
2023/10/03 09:48:55;;;;;;;10.25;5.95;;;;;;;36.67;33.49;96245.28;5103234;28;20500;-83
2023/10/03 09:51:45;;;;;;;10.57;6.15;;;;;;;37.48;32.32;96233.31;5089055;28;20015;-84
2023/10/03 09:54:15;;;;;;;10.98;5.57;;;;;;;37.31;32.42;96240.84;5087109;28;20039;-84
2023/10/03 09:56:44;;;;;;;9.60;5.13;;;;;;;36.95;32.05;96242.91;5092180;28;20031;-83
2023/10/03 09:59:17;;;;;;;11.15;6.05;;;;;;;35.83;33.94;96239.22;5101492;28;20023;-84
2023/10/03 10:01:45;;;;;;;11.18;5.15;;;;;;;36.76;32.50;96231.56;5086944;28;20027;-84
2023/10/03 10:04:15;;;;;;;9.73;5.20;;;;;;;36.63;32.74;96249.81;5110146;28;20023;-84
2023/10/03 10:06:51;;;;;;;14.55;5.18;;;;;;;36.10;34.08;96251.00;5091750;28;20020;-84
2023/10/03 10:09:28;;;;;;;12.50;5.40;;;;;;;36.35;33.81;96235.66;5088519;28;20031;-84
2023/10/03 10:12:11;;;;;;;12.82;5.95;;;;;;;36.97;33.11;96239.88;5089769;28;20105;-84
2023/10/03 10:17:54;;;;;;;12.32;5.22;;;;;;;35.82;34.43;96239.56;5105230;28;20035;-84
2023/10/03 10:20:27;;;;;;;11.25;6.60;;;;;;;35.04;35.34;96231.97;5104699;28;20080;-84
2023/10/03 10:23:13;;;;;;;11.63;5.40;;;;;;;33.88;36.97;96244.72;5078815;28;20115;-84
2023/10/03 10:25:56;;;;;;;9.55;5.63;;;;;;;35.60;35.62;96244.03;5105412;28;20030;-84
2023/10/03 10:28:27;;;;;;;12.98;6.20;;;;;;;35.68;34.88;96239.69;5086955;28;20486;-84
2023/10/03 10:31:22;;;;;;;12.63;6.35;;;;;;;36.16;33.98;96232.47;5102631;28;20024;-83
2023/10/03 10:33:49;;;;;;;9.95;5.82;;;;;;;36.25;34.60;96236.81;5089440;28;20308;-84
2023/10/03 10:36:18;;;;;;;10.52;5.38;;;;;;;36.75;34.49;96233.47;5083753;28;20039;-84
2023/10/03 10:38:44;;;;;;;12.93;5.70;;;;;;;37.14;33.79;96217.06;5108051;28;20020;-84
2023/10/03 10:41:21;;;;;;;12.88;6.20;;;;;;;36.57;33.60;96216.28;5100420;28;20430;-84
2023/10/03 10:44:21;;;;;;;9.23;5.63;;;;;;;36.91;33.24;96213.75;5104299;28;20032;-85
2023/10/03 10:46:49;;;;;;;10.98;5.38;;;;;;;36.35;34.63;96209.09;5099347;28;20036;-85
2023/10/03 10:49:30;;;;;;;10.73;6.35;;;;;;;36.42;34.24;96202.28;5100358;28;20502;-84
2023/10/03 10:52:06;;;;;;;13.05;6.43;;;;;;;36.03;33.99;96190.47;5082516;28;20028;-82
2023/10/03 10:54:35;;;;;;;9.02;5.10;;;;;;;35.36;34.79;96197.97;5084572;28;20394;-83
2023/10/03 10:57:02;;;;;;;13.90;5.72;;;;;;;36.44;34.95;96178.13;5088862;28;20388;-83
2023/10/03 10:59:51;;;;;;;13.48;5.53;;;;;;;35.49;35.11;96193.47;5086161;28;20093;-84
2023/10/03 11:02:18;;;;;;;12.75;6.18;;;;;;;35.92;35.07;96184.50;5093523;28;20023;-84
2023/10/03 11:04:55;;;;;;;9.95;6.30;;;;;;;36.80;34.45;96178.50;5085224;28;20023;-84
2023/10/03 11:07:26;;;;;;;7.55;4.78;;;;;;;35.35;35.59;96177.22;5107100;28;20012;-84
2023/10/03 11:09:54;;;;;;;16.52;6.82;;;;;;;35.75;34.83;96174.38;5095861;28;20016;-83
2023/10/03 11:12:27;;;;;;;9.32;5.68;;;;;;;35.07;36.02;96175.88;5108756;28;20019;-85
2023/10/03 11:14:55;;;;;;;13.13;5.80;;;;;;;34.44;37.45;96178.66;5093687;28;20059;-85
2023/10/03 11:17:21;;;;;;;16.83;5.38;;;;;;;33.79;38.12;96170.97;5091405;28;20020;-83
2023/10/03 11:19:52;;;;;;;13.15;5.05;;;;;;;34.48;37.13;96187.81;5110737;28;20054;-84
2023/10/03 11:22:18;;;;;;;7.65;5.03;;;;;;;33.76;38.91;96179.78;5091615;28;20031;-84
2023/10/03 11:24:44;;;;;;;9.65;5.53;;;;;;;33.27;39.63;96181.44;5095539;28;20057;-84
2023/10/03 11:27:50;;;;;;;8.55;4.90;;;;;;;33.73;39.39;96177.69;5095761;28;20027;-84
2023/10/03 11:30:21;;;;;;;8.60;4.88;;;;;;;32.99;40.33;96170.56;5086220;28;20250;-83
2023/10/03 11:32:48;;;;;;;11.85;4.75;;;;;;;33.11;39.48;96170.06;5089474;28;20036;-83